EGYP

RAF Mount Pleasant

Airport
ICAO code
EGYP
IATA Code
MPN
Summary
ICAO Region
CARSAM
ICAO Territory
Location

Mount Pleasant, Falkland Islands

Serving
Mount Pleasant
Elevation
243 ft
Coordinates
51° 49' 24" S , 58° 26' 36" W
KCC
Metar
EGYP 282220Z 01005KT 9999 -DZ FEW002 SCT007 OVC065 13/12 Q1001 TEMPO 7000 -DZ SCT004

The airport is a Royal Air Force base in the Falkland Islands which is avalable for civil transport flights by prior arrangement.

Climatology

Subpolar Oceanic climate (Köppen climate classification Cfc)

Runways

Designator Length Width Surface Rops
5/23 1525 23 ASP Yes/Yes
10/28 2590 46 ASP Yes/Yes

Airport map

Aerial View

SKYbrary Partners:

Safety knowledge contributed by: